createdAt,value
2023-02-21T00:02:35.965Z,43.35
2023-02-21T00:05:21.385Z,43.15
2023-02-21T00:08:06.468Z,44.53
2023-02-21T00:10:51.673Z,43.72
2023-02-21T00:13:36.944Z,43.25
2023-02-21T00:16:21.964Z,45.80
2023-02-21T00:19:06.799Z,44.60
2023-02-21T00:21:51.988Z,42.95
2023-02-21T00:24:38.166Z,43.70
2023-02-21T00:27:23.885Z,40.40
2023-02-21T00:30:09.859Z,41.80
2023-02-21T00:32:55.058Z,40.65
2023-02-21T00:35:40.441Z,40.05
2023-02-21T00:38:26.717Z,39.17
2023-02-21T00:41:12.224Z,33.17
2023-02-21T00:43:57.546Z,34.42
2023-02-21T00:46:42.867Z,32.75
2023-02-21T00:49:27.986Z,30.27
2023-02-21T00:52:13.015Z,29.98
2023-02-21T00:54:58.195Z,31.70
2023-02-21T00:57:43.185Z,30.83
2023-02-21T01:00:34.435Z,31.00
2023-02-21T01:03:19.742Z,31.27
2023-02-21T01:06:05.106Z,32.00
2023-02-21T01:08:50.228Z,31.02
2023-02-21T01:11:37.957Z,31.75
2023-02-21T01:14:24.042Z,33.50
2023-02-21T01:17:13.450Z,32.75
2023-02-21T01:19:59.903Z,40.03
2023-02-21T01:22:45.940Z,40.20
2023-02-21T01:25:33.193Z,42.05
2023-02-21T01:28:18.448Z,43.25
2023-02-21T01:31:03.663Z,43.58
2023-02-21T01:33:56.805Z,41.40
2023-02-21T01:36:41.925Z,39.90
2023-02-21T01:39:26.963Z,38.00
2023-02-21T01:42:12.196Z,38.25
2023-02-21T01:45:00.567Z,35.67
2023-02-21T01:47:46.806Z,36.30
2023-02-21T01:50:50.610Z,34.67
2023-02-21T01:53:39.723Z,35.45
2023-02-21T01:56:25.868Z,37.95
2023-02-21T01:59:14.102Z,38.90
2023-02-21T02:02:20.511Z,38.50
2023-02-21T02:05:08.911Z,38.05
2023-02-21T02:07:55.767Z,38.95
2023-02-21T02:10:41.980Z,38.67
2023-02-21T02:13:27.484Z,38.22
2023-02-21T02:15:54.002Z,38.53
2023-02-21T02:18:37.896Z,35.72
2023-02-21T02:21:46.047Z,36.47
2023-02-21T02:24:43.529Z,35.30
2023-02-21T02:27:37.648Z,38.22
2023-02-21T02:30:44.645Z,43.22
2023-02-21T02:33:26.373Z,41.70
2023-02-21T02:36:21.163Z,39.95
2023-02-21T02:38:59.878Z,38.75
2023-02-21T02:41:44.130Z,40.80
2023-02-21T02:44:28.355Z,39.50
2023-02-21T02:46:59.303Z,39.17
2023-02-21T02:49:29.527Z,36.10
2023-02-21T02:52:03.993Z,33.55
2023-02-21T02:54:31.497Z,33.10
2023-02-21T02:56:59.323Z,35.13
2023-02-21T02:59:29.912Z,34.80
2023-02-21T03:02:12.844Z,33.45
2023-02-21T03:05:16.187Z,34.15
2023-02-21T03:08:14.352Z,33.85
2023-02-21T03:10:54.306Z,36.10
2023-02-21T03:13:36.400Z,33.38
2023-02-21T03:16:17.719Z,32.50
2023-02-21T03:18:51.114Z,33.17
2023-02-21T03:21:24.803Z,34.15
2023-02-21T03:23:54.340Z,32.92
2023-02-21T03:26:21.106Z,32.55
2023-02-21T03:28:54.952Z,33.33
2023-02-21T03:31:26.178Z,32.88
2023-02-21T03:33:53.362Z,33.03
2023-02-21T03:36:20.818Z,34.33
2023-02-21T03:38:47.846Z,33.33
2023-02-21T03:41:15.657Z,33.83
2023-02-21T03:43:42.510Z,34.47
2023-02-21T03:46:09.037Z,34.10
2023-02-21T03:48:36.211Z,35.30
2023-02-21T03:51:14.350Z,33.03
2023-02-21T03:53:41.059Z,32.55
2023-02-21T03:56:09.104Z,35.70
2023-02-21T03:58:52.939Z,34.03
2023-02-21T04:01:19.575Z,33.25
2023-02-21T04:03:46.424Z,33.78
2023-02-21T04:06:13.746Z,34.63
2023-02-21T04:08:40.502Z,33.70
2023-02-21T04:11:07.443Z,36.15
2023-02-21T04:13:35.877Z,35.38
2023-02-21T04:16:03.040Z,33.80
2023-02-21T04:18:30.475Z,34.78
2023-02-21T04:21:00.225Z,35.20
2023-02-21T04:23:26.896Z,34.78
2023-02-21T04:25:53.491Z,35.20
2023-02-21T04:28:30.229Z,33.95
2023-02-21T04:30:57.011Z,36.30
2023-02-21T04:33:23.910Z,35.50
2023-02-21T04:35:50.827Z,38.00
2023-02-21T04:38:24.167Z,35.60
2023-02-21T04:40:51.010Z,35.28
2023-02-21T04:43:17.692Z,36.17
2023-02-21T04:45:44.284Z,36.42
2023-02-21T04:48:10.840Z,36.90
2023-02-21T04:50:37.413Z,33.60
2023-02-21T04:53:04.159Z,34.75
2023-02-21T04:55:30.670Z,36.42
2023-02-21T04:57:57.188Z,35.20
2023-02-21T05:00:23.818Z,35.03
2023-02-21T05:02:50.353Z,37.58
2023-02-21T05:05:17.024Z,36.47
2023-02-21T05:07:44.185Z,36.72
2023-02-21T05:10:11.682Z,38.22
2023-02-21T05:12:39.778Z,35.72
2023-02-21T05:15:07.369Z,38.55
2023-02-21T05:17:34.032Z,38.50
2023-02-21T05:20:01.132Z,38.90
2023-02-21T05:22:27.620Z,38.63
2023-02-21T05:24:54.097Z,39.47
2023-02-21T05:27:22.239Z,37.65
2023-02-21T05:29:50.152Z,37.70
2023-02-21T05:32:18.024Z,37.92
2023-02-21T05:34:46.862Z,37.33
2023-02-21T05:37:17.655Z,39.13
2023-02-21T05:39:44.249Z,41.10
2023-02-21T05:42:11.222Z,39.28
2023-02-21T05:44:37.741Z,41.05
2023-02-21T05:47:04.378Z,39.58
2023-02-21T05:49:30.916Z,40.13
2023-02-21T05:51:57.446Z,39.88
2023-02-21T05:54:24.058Z,38.05
2023-02-21T05:56:52.200Z,38.15
2023-02-21T05:59:20.512Z,42.15
2023-02-21T06:01:50.345Z,37.55
2023-02-21T06:04:17.630Z,38.92
2023-02-21T06:06:44.613Z,37.45
2023-02-21T06:09:11.569Z,38.33
2023-02-21T06:11:40.313Z,37.70
2023-02-21T06:14:13.432Z,37.88
2023-02-21T06:16:39.984Z,39.15
2023-02-21T06:19:08.673Z,38.00
2023-02-21T06:21:36.963Z,36.33
2023-02-21T06:24:04.715Z,37.97
2023-02-21T06:26:31.346Z,36.10
2023-02-21T06:28:57.921Z,37.95
2023-02-21T06:31:25.121Z,38.05
2023-02-21T06:33:51.916Z,35.38
2023-02-21T06:36:23.948Z,35.65
2023-02-21T06:38:52.294Z,35.00
2023-02-21T06:41:21.220Z,35.30
2023-02-21T06:43:47.824Z,36.15
2023-02-21T06:46:18.961Z,33.20
2023-02-21T06:48:45.567Z,39.05
2023-02-21T06:51:14.640Z,37.33
2023-02-21T06:53:42.083Z,38.97
2023-02-21T06:56:09.211Z,37.50
2023-02-21T06:58:35.841Z,40.15
2023-02-21T07:01:02.913Z,39.58
2023-02-21T07:03:29.508Z,40.50
2023-02-21T07:05:56.009Z,40.08
2023-02-21T07:08:22.546Z,40.63
2023-02-21T07:10:49.151Z,36.70
2023-02-21T07:13:15.648Z,38.80
2023-02-21T07:15:42.188Z,40.83
2023-02-21T07:18:08.754Z,40.55
2023-02-21T07:20:35.319Z,37.65
2023-02-21T07:23:01.855Z,38.90
2023-02-21T07:25:28.396Z,39.53
2023-02-21T07:27:54.901Z,38.63
2023-02-21T07:30:21.791Z,40.10
2023-02-21T07:32:48.364Z,41.08
2023-02-21T07:35:14.921Z,41.33
2023-02-21T07:37:41.481Z,42.65
2023-02-21T07:40:08.338Z,36.60
2023-02-21T07:42:34.978Z,39.92
2023-02-21T07:45:01.858Z,40.83
2023-02-21T07:47:28.545Z,39.50
2023-02-21T07:49:55.132Z,38.70
2023-02-21T07:52:22.995Z,46.45
2023-02-21T07:54:49.791Z,45.35
2023-02-21T07:57:18.077Z,44.38
2023-02-21T07:59:44.775Z,43.28
2023-02-21T08:02:12.260Z,42.33
2023-02-21T08:04:39.324Z,44.53
2023-02-21T08:07:06.201Z,39.95
2023-02-21T08:09:33.405Z,45.83
2023-02-21T08:12:00.215Z,41.70
2023-02-21T08:14:26.893Z,39.63
2023-02-21T08:16:53.439Z,41.03
2023-02-21T08:19:20.171Z,37.35
2023-02-21T08:21:48.136Z,35.55
2023-02-21T08:24:15.776Z,35.25
2023-02-21T08:26:45.275Z,35.50
2023-02-21T08:29:13.343Z,33.88
2023-02-21T08:31:41.451Z,35.63
2023-02-21T08:34:08.476Z,33.28
2023-02-21T08:36:40.350Z,34.50
2023-02-21T08:39:08.032Z,30.35
2023-02-21T08:41:39.796Z,33.95
2023-02-21T08:44:07.618Z,28.33
2023-02-21T08:46:34.953Z,30.38
2023-02-21T08:49:03.431Z,26.25
2023-02-21T08:51:31.949Z,27.58
2023-02-21T08:53:59.386Z,27.23
2023-02-21T08:56:27.039Z,23.17
2023-02-21T08:58:54.982Z,22.60
2023-02-21T09:01:23.476Z,20.35
2023-02-21T09:03:50.550Z,19.77
2023-02-21T09:06:17.833Z,19.10
2023-02-21T09:08:44.332Z,18.02
2023-02-21T09:11:10.978Z,17.25
2023-02-21T09:13:37.510Z,17.58
2023-02-21T09:16:04.519Z,16.90
2023-02-21T09:18:32.510Z,15.80
2023-02-21T09:20:59.318Z,16.70
2023-02-21T09:23:28.301Z,16.88
2023-02-21T09:25:55.263Z,16.95
2023-02-21T09:28:22.211Z,16.27
2023-02-21T09:30:49.777Z,16.80
2023-02-21T09:33:16.706Z,16.17
2023-02-21T09:35:43.374Z,16.40
2023-02-21T09:38:10.372Z,16.63
2023-02-21T09:40:45.522Z,15.45
2023-02-21T09:43:16.437Z,16.38
2023-02-21T09:45:44.701Z,16.40
2023-02-21T09:48:15.074Z,14.27
2023-02-21T09:50:46.150Z,16.13
2023-02-21T09:53:18.796Z,15.38
2023-02-21T09:58:15.430Z,14.27
2023-02-21T10:00:44.078Z,17.27
2023-02-21T10:03:34.472Z,14.38
2023-02-21T10:06:19.822Z,14.25
2023-02-21T10:09:41.740Z,15.93
2023-02-21T10:12:22.161Z,13.95
2023-02-21T10:15:12.955Z,13.35
2023-02-21T10:18:04.709Z,14.55
2023-02-21T10:20:51.306Z,14.15
2023-02-21T10:23:30.961Z,13.13
2023-02-21T10:26:03.977Z,15.00
2023-02-21T10:28:30.582Z,16.88
2023-02-21T10:31:07.399Z,15.57
2023-02-21T10:33:38.422Z,14.75
2023-02-21T10:36:13.947Z,17.70
2023-02-21T10:38:43.595Z,18.92
2023-02-21T10:41:11.317Z,17.45
2023-02-21T10:43:48.466Z,17.85
2023-02-21T10:46:25.064Z,17.10
2023-02-21T10:48:55.311Z,16.27
2023-02-21T10:51:32.879Z,16.02
2023-02-21T10:54:19.190Z,15.98
2023-02-21T10:56:46.148Z,16.77
2023-02-21T10:59:25.402Z,15.52
2023-02-21T11:01:53.472Z,15.20
2023-02-21T11:04:19.977Z,15.18
2023-02-21T11:06:49.638Z,14.20
2023-02-21T11:09:36.556Z,15.52
2023-02-21T11:12:05.265Z,14.73
2023-02-21T11:14:33.453Z,16.38
2023-02-21T11:17:15.317Z,16.08
2023-02-21T11:19:42.959Z,14.55
2023-02-21T11:22:09.890Z,13.98
2023-02-21T11:24:58.186Z,14.27
2023-02-21T11:27:25.542Z,14.68
2023-02-21T11:29:53.940Z,15.00
2023-02-21T11:32:29.687Z,15.82
2023-02-21T11:35:08.594Z,18.67
2023-02-21T11:37:49.660Z,15.18
2023-02-21T11:40:42.533Z,14.55
2023-02-21T11:43:12.135Z,13.90
2023-02-21T11:45:44.922Z,13.68
2023-02-21T11:48:16.563Z,13.68
2023-02-21T11:50:50.191Z,13.33
2023-02-21T11:53:23.016Z,13.45
2023-02-21T11:56:34.795Z,13.60
2023-02-21T11:59:17.648Z,15.82
2023-02-21T12:04:43.575Z,13.27
2023-02-21T12:07:49.843Z,15.07
2023-02-21T12:10:42.241Z,12.98
2023-02-21T12:13:24.797Z,14.38
2023-02-21T12:16:06.643Z,13.80
2023-02-21T12:18:51.373Z,13.90
2023-02-21T12:21:47.064Z,13.93
2023-02-21T12:24:27.760Z,14.18
2023-02-21T12:27:12.449Z,13.38
2023-02-21T12:30:08.621Z,15.00
2023-02-21T12:32:38.187Z,12.68
2023-02-21T12:35:23.092Z,12.82
2023-02-21T12:38:08.455Z,14.52
2023-02-21T12:41:19.758Z,12.73
2023-02-21T12:44:08.179Z,13.15
2023-02-21T12:46:40.679Z,14.38
2023-02-21T12:51:54.308Z,13.07
2023-02-21T12:54:33.236Z,13.43
2023-02-21T12:57:05.359Z,14.13
2023-02-21T12:59:50.885Z,13.75
2023-02-21T13:02:38.700Z,12.90
2023-02-21T13:05:21.070Z,14.38
2023-02-21T13:08:20.933Z,15.10
2023-02-21T13:11:09.797Z,13.50
2023-02-21T13:13:36.867Z,13.88
2023-02-21T13:16:11.330Z,14.57
2023-02-21T13:18:44.339Z,13.98
2023-02-21T13:21:38.822Z,14.18
2023-02-21T13:24:31.046Z,13.65
2023-02-21T13:27:34.878Z,13.95
2023-02-21T13:30:12.314Z,14.05
2023-02-21T13:32:40.657Z,13.32
2023-02-21T13:35:10.007Z,13.63
2023-02-21T13:37:45.441Z,11.68
2023-02-21T13:40:39.251Z,13.40
2023-02-21T13:43:26.035Z,13.43
2023-02-21T13:45:52.896Z,13.98
2023-02-21T13:48:24.013Z,13.65
2023-02-21T13:50:53.470Z,14.38
2023-02-21T13:53:33.141Z,14.27
2023-02-21T13:55:59.867Z,14.85
2023-02-21T13:58:43.603Z,15.55
2023-02-21T14:01:39.761Z,14.68
2023-02-21T14:04:43.978Z,15.50
2023-02-21T14:07:10.594Z,14.15
2023-02-21T14:09:41.922Z,14.63
2023-02-21T14:12:12.589Z,14.18
2023-02-21T14:14:39.867Z,12.88
2023-02-21T14:17:10.416Z,13.40
2023-02-21T14:19:48.325Z,13.35
2023-02-21T14:22:25.194Z,12.95
2023-02-21T14:25:03.945Z,13.88
2023-02-21T14:27:33.972Z,13.38
2023-02-21T14:30:12.818Z,13.18
2023-02-21T14:32:46.898Z,12.90
2023-02-21T14:35:16.347Z,12.38
2023-02-21T14:37:51.575Z,12.02
2023-02-21T14:40:31.428Z,11.52
2023-02-21T14:43:30.621Z,11.57
2023-02-21T14:45:57.118Z,11.48
2023-02-21T14:48:53.285Z,11.63
2023-02-21T14:51:38.496Z,11.63
2023-02-21T14:54:19.346Z,11.70
2023-02-21T14:57:04.014Z,11.20
2023-02-21T14:59:51.798Z,10.77
2023-02-21T15:02:37.047Z,11.35
2023-02-21T15:05:09.756Z,11.23
2023-02-21T15:07:48.593Z,10.40
2023-02-21T15:10:22.008Z,9.38
2023-02-21T15:12:49.915Z,10.35
2023-02-21T15:15:42.933Z,10.88
2023-02-21T15:20:40.861Z,14.77
2023-02-21T15:23:29.421Z,12.65
2023-02-21T15:25:58.566Z,11.27
2023-02-21T15:28:33.892Z,11.32
2023-02-21T15:31:07.908Z,10.48
2023-02-21T15:33:40.852Z,10.18
2023-02-21T15:36:18.278Z,11.23
2023-02-21T15:39:05.837Z,10.77
2023-02-21T15:41:45.856Z,9.38
2023-02-21T15:44:27.321Z,9.63
2023-02-21T15:46:59.342Z,10.63
2023-02-21T15:49:30.005Z,9.88
2023-02-21T15:51:56.819Z,11.57
2023-02-21T15:54:25.337Z,10.27
2023-02-21T15:57:24.738Z,10.60
2023-02-21T16:00:18.968Z,9.43
2023-02-21T16:02:45.754Z,10.00
2023-02-21T16:05:25.948Z,12.23
2023-02-21T16:07:54.086Z,14.95
2023-02-21T16:10:23.470Z,13.77
2023-02-21T16:12:59.868Z,11.15
2023-02-21T16:15:32.844Z,10.68
2023-02-21T16:18:03.490Z,10.85
2023-02-21T16:20:35.590Z,10.57
2023-02-21T16:23:20.176Z,11.50
2023-02-21T16:26:00.519Z,10.70
2023-02-21T16:28:28.179Z,10.77
2023-02-21T16:30:58.272Z,11.85
2023-02-21T16:33:26.618Z,11.85
2023-02-21T16:35:53.537Z,11.95
2023-02-21T16:38:24.721Z,12.23
2023-02-21T16:40:58.792Z,12.00
2023-02-21T16:43:31.164Z,12.38
2023-02-21T16:45:59.235Z,12.52
2023-02-21T16:48:33.101Z,10.90
2023-02-21T16:51:04.831Z,12.50
2023-02-21T16:53:31.647Z,12.15
2023-02-21T16:55:59.945Z,10.80
2023-02-21T16:58:46.123Z,10.20
2023-02-21T17:01:33.504Z,12.32
2023-02-21T17:04:02.404Z,11.93
2023-02-21T17:06:29.175Z,11.82
2023-02-21T17:08:55.732Z,13.00
2023-02-21T17:11:22.416Z,11.60
2023-02-21T17:13:48.955Z,12.40
2023-02-21T17:16:15.557Z,12.52
2023-02-21T17:18:44.228Z,12.35
2023-02-21T17:21:11.585Z,11.73
2023-02-21T17:23:38.244Z,12.23
2023-02-21T17:26:04.883Z,12.07
2023-02-21T17:28:31.515Z,11.95
2023-02-21T17:30:58.104Z,11.65
2023-02-21T17:33:24.762Z,12.65
2023-02-21T17:35:53.313Z,13.02
2023-02-21T17:38:19.875Z,13.45
2023-02-21T17:40:46.566Z,13.20
2023-02-21T17:43:16.077Z,13.70
2023-02-21T17:45:42.670Z,13.00
2023-02-21T17:48:09.313Z,16.17
2023-02-21T17:50:35.923Z,16.67
2023-02-21T17:53:02.536Z,17.48
2023-02-21T17:55:30.131Z,15.48
2023-02-21T17:57:57.536Z,16.55
2023-02-21T18:00:26.306Z,16.60
2023-02-21T18:02:54.377Z,15.13
2023-02-21T18:05:21.183Z,15.20
2023-02-21T18:07:49.860Z,16.58
2023-02-21T18:10:18.791Z,16.55
2023-02-21T18:12:45.520Z,16.10
2023-02-21T18:15:12.380Z,15.68
2023-02-21T18:17:40.786Z,17.73
2023-02-21T18:20:09.768Z,17.13
2023-02-21T18:22:37.982Z,14.70
2023-02-21T18:25:05.501Z,14.80
2023-02-21T18:27:32.173Z,18.48
2023-02-21T18:29:58.930Z,17.30
2023-02-21T18:32:26.309Z,17.50
2023-02-21T18:34:53.034Z,17.05
2023-02-21T18:37:19.923Z,16.45
2023-02-21T18:39:46.535Z,17.80
2023-02-21T18:42:13.156Z,18.20
2023-02-21T18:44:39.799Z,17.73
2023-02-21T18:47:06.455Z,20.73
2023-02-21T18:49:38.525Z,22.73
2023-02-21T18:52:07.120Z,22.35
2023-02-21T18:54:34.164Z,24.13
2023-02-21T18:57:00.773Z,22.90
2023-02-21T18:59:27.897Z,19.92
2023-02-21T19:01:55.333Z,18.90
2023-02-21T19:04:22.337Z,20.40
2023-02-21T19:06:48.908Z,18.83
2023-02-21T19:09:15.427Z,18.15
2023-02-21T19:11:42.825Z,18.20
2023-02-21T19:14:09.496Z,18.75
2023-02-21T19:16:36.188Z,20.33
2023-02-21T19:19:05.761Z,17.10
2023-02-21T19:21:32.453Z,19.60
2023-02-21T19:23:59.304Z,21.05
2023-02-21T19:26:29.686Z,18.42
2023-02-21T19:28:56.668Z,19.55
2023-02-21T19:31:23.511Z,18.88
2023-02-21T19:33:50.612Z,19.83
2023-02-21T19:36:17.201Z,20.15
2023-02-21T19:38:43.842Z,18.80
2023-02-21T19:41:10.577Z,20.60
2023-02-21T19:43:37.706Z,17.77
2023-02-21T19:46:04.566Z,17.38
2023-02-21T19:48:31.237Z,18.55
2023-02-21T19:50:57.814Z,17.58
2023-02-21T19:53:24.527Z,18.88
2023-02-21T19:55:51.027Z,16.58
2023-02-21T19:58:19.931Z,18.42
2023-02-21T20:00:47.044Z,18.98
2023-02-21T20:03:13.863Z,18.10
2023-02-21T20:05:40.515Z,20.55
2023-02-21T20:08:07.140Z,18.42
2023-02-21T20:10:33.905Z,15.73
2023-02-21T20:13:02.362Z,16.98
2023-02-21T20:15:28.998Z,16.15
2023-02-21T20:17:55.710Z,16.13
2023-02-21T20:20:22.259Z,16.27
2023-02-21T20:22:48.788Z,19.60
2023-02-21T20:25:15.443Z,18.52
2023-02-21T20:27:42.064Z,19.42
2023-02-21T20:30:09.594Z,18.98
2023-02-21T20:32:36.305Z,16.58
2023-02-21T20:35:03.755Z,19.30
2023-02-21T20:37:32.430Z,20.23
2023-02-21T20:39:59.726Z,19.40
2023-02-21T20:42:27.469Z,19.92
2023-02-21T20:44:55.069Z,21.85
2023-02-21T20:47:21.732Z,19.95
2023-02-21T20:49:48.340Z,21.70
2023-02-21T20:52:16.348Z,18.98
2023-02-21T20:54:43.240Z,20.45
2023-02-21T20:57:09.928Z,19.20
2023-02-21T20:59:38.747Z,19.33
2023-02-21T21:02:06.357Z,21.33
2023-02-21T21:04:35.931Z,19.02
2023-02-21T21:07:06.508Z,19.50
2023-02-21T21:09:37.503Z,19.98
2023-02-21T21:12:10.794Z,19.10
2023-02-21T21:14:41.499Z,20.08
2023-02-21T21:17:08.479Z,20.70
2023-02-21T21:19:35.142Z,18.88
2023-02-21T21:22:04.995Z,19.15
2023-02-21T21:24:32.099Z,16.88
2023-02-21T21:27:06.274Z,17.70
2023-02-21T21:29:36.335Z,18.85
2023-02-21T21:32:05.330Z,17.83
2023-02-21T21:34:33.130Z,17.88
2023-02-21T21:37:02.415Z,19.30
2023-02-21T21:39:29.016Z,17.73
2023-02-21T21:42:08.526Z,18.50
2023-02-21T21:44:43.797Z,17.65
2023-02-21T21:47:10.335Z,18.52
2023-02-21T21:49:37.271Z,19.48
2023-02-21T21:52:04.657Z,18.25
2023-02-21T21:54:35.750Z,17.00
2023-02-21T21:57:04.418Z,18.88
2023-02-21T21:59:32.436Z,18.98
2023-02-21T22:01:59.508Z,19.13
2023-02-21T22:04:27.154Z,21.08
2023-02-21T22:06:55.472Z,20.63
2023-02-21T22:09:22.964Z,19.00
2023-02-21T22:11:50.081Z,17.63
2023-02-21T22:14:18.402Z,17.70
2023-02-21T22:16:47.845Z,18.88
2023-02-21T22:19:15.887Z,17.55
2023-02-21T22:21:45.811Z,19.02
2023-02-21T22:24:19.360Z,18.83
2023-02-21T22:26:46.783Z,18.13
2023-02-21T22:29:15.630Z,17.27
2023-02-21T22:31:43.954Z,17.45
2023-02-21T22:34:17.545Z,17.88
2023-02-21T22:36:46.554Z,18.58
2023-02-21T22:39:13.226Z,19.45
2023-02-21T22:41:39.896Z,20.48
2023-02-21T22:44:06.790Z,19.95
2023-02-21T22:46:50.471Z,19.40
2023-02-21T22:49:17.139Z,20.85
2023-02-21T22:51:44.104Z,20.75
2023-02-21T22:54:14.356Z,23.48
2023-02-21T22:56:50.629Z,21.40
2023-02-21T22:59:24.245Z,21.13
2023-02-21T23:01:50.949Z,23.88
2023-02-21T23:04:25.306Z,22.02
2023-02-21T23:06:59.643Z,23.63
2023-02-21T23:09:28.368Z,21.98
2023-02-21T23:11:58.374Z,22.02
2023-02-21T23:14:26.297Z,21.80
2023-02-21T23:16:57.328Z,23.42
2023-02-21T23:19:25.523Z,21.83
2023-02-21T23:21:53.783Z,23.77
2023-02-21T23:24:22.080Z,21.90
2023-02-21T23:26:50.316Z,21.80
2023-02-21T23:29:24.137Z,23.40
2023-02-21T23:31:52.237Z,25.35
2023-02-21T23:34:19.730Z,23.92
2023-02-21T23:36:46.426Z,23.17
2023-02-21T23:39:15.005Z,23.15
2023-02-21T23:41:43.429Z,24.75
2023-02-21T23:44:12.615Z,25.60
2023-02-21T23:46:42.235Z,24.98
2023-02-21T23:49:11.203Z,24.85
2023-02-21T23:51:38.402Z,24.92
2023-02-21T23:54:07.051Z,25.45
2023-02-21T23:56:35.513Z,25.13
2023-02-21T23:59:06.051Z,26.50
